Time;durP1;ratioP1;P1;durP2;ratioP2;P2;SDS_P1;SDS_P2;PMS_P1;PMS_P2;Temp;Humidity;BMP_temperature;BMP_pressure;BME280_temperature;BME280_humidity;BME280_pressure;Samples;Min_cycle;Max_cycle;Signal;HPM_P1;HPM_P2
2021/12/18 00:01:08;;;;;;;14.43;8.70;;;;;;;-143.84;92.73;44026.69;5073357;28;20504;-76
2021/12/18 00:03:35;;;;;;;15.90;10.23;;;;;;;-143.84;92.45;44034.31;5073222;28;20493;-76
2021/12/18 00:06:03;;;;;;;13.37;8.97;;;;;;;-143.84;92.88;44059.03;5072947;28;20442;-75
2021/12/18 00:08:32;;;;;;;17.53;10.20;;;;;;;-143.84;92.60;44076.19;5073194;28;20433;-76
2021/12/18 00:10:59;;;;;;;13.10;9.43;;;;;;;-143.84;92.32;44051.44;5072763;28;20972;-76
2021/12/18 00:13:26;;;;;;;14.20;10.83;;;;;;;-143.84;92.24;44116.16;5072897;28;20498;-76
2021/12/18 00:15:54;;;;;;;12.03;9.23;;;;;;;-143.84;92.72;44055.25;5073193;28;20432;-76
2021/12/18 00:18:21;;;;;;;13.93;10.20;;;;;;;-143.84;92.65;44053.34;5072952;28;20482;-76
2021/12/18 00:20:49;;;;;;;15.67;9.40;;;;;;;-143.84;92.30;44091.41;5072973;28;20439;-76
2021/12/18 00:23:16;;;;;;;15.03;10.37;;;;;;;-143.84;92.05;44099.03;5074528;28;20471;-76
2021/12/18 00:25:45;;;;;;;22.20;9.97;;;;;;;-143.84;91.95;44129.47;5092859;28;20442;-76
2021/12/18 00:28:13;;;;;;;15.83;8.77;;;;;;;-143.84;92.66;44066.66;5092882;28;20478;-76
2021/12/18 00:30:40;;;;;;;13.43;8.77;;;;;;;-143.84;92.77;44032.41;5092691;28;20475;-75
2021/12/18 00:33:08;;;;;;;12.47;9.00;;;;;;;-143.84;92.69;43981.00;5092277;28;20447;-75
2021/12/18 00:35:35;;;;;;;17.53;9.40;;;;;;;-143.84;93.10;43986.72;5092242;28;20440;-75
2021/12/18 00:38:03;;;;;;;11.30;8.40;;;;;;;-143.84;92.49;44026.69;5091540;28;20442;-75
2021/12/18 00:40:43;;;;;;;12.93;8.67;;;;;;;-143.84;92.83;44017.16;5091984;28;20444;-76
2021/12/18 00:43:25;;;;;;;14.20;9.70;;;;;;;-143.84;93.15;43994.31;5092545;28;20433;-75
2021/12/18 00:45:53;;;;;;;15.70;9.50;;;;;;;-143.84;93.23;43984.81;5092160;28;20446;-76
2021/12/18 00:48:21;;;;;;;15.30;8.80;;;;;;;-143.84;93.27;43996.22;5091675;28;20432;-76
2021/12/18 00:50:49;;;;;;;16.60;9.63;;;;;;;-143.84;93.39;43981.00;5090623;28;20469;-76
2021/12/18 00:53:16;;;;;;;14.17;8.67;;;;;;;-143.84;93.26;43998.13;5090712;28;20835;-75
2021/12/18 00:55:44;;;;;;;14.97;8.90;;;;;;;-143.84;93.41;44009.56;5090720;28;20454;-75
2021/12/18 00:58:12;;;;;;;17.80;8.67;;;;;;;-143.84;93.29;43969.59;5089361;28;20963;-75
2021/12/18 01:00:41;;;;;;;9.87;8.30;;;;;;;-143.84;93.10;43984.81;5089289;28;20446;-75
2021/12/18 01:03:16;;;;;;;12.90;9.10;;;;;;;-143.84;93.55;43933.41;5089672;28;20490;-75
2021/12/18 01:05:44;;;;;;;9.53;8.27;;;;;;;-143.84;93.23;43963.88;5090336;28;20437;-74
2021/12/18 01:08:11;;;;;;;13.27;9.03;;;;;;;-143.84;93.15;44003.84;5089910;28;20493;-75
2021/12/18 01:10:54;;;;;;;12.77;8.60;;;;;;;-143.84;93.24;43973.38;5090240;28;20554;-73
2021/12/18 01:13:28;;;;;;;12.37;7.57;;;;;;;-143.84;93.05;43954.34;5089726;28;20433;-73
2021/12/18 01:16:04;;;;;;;10.70;9.20;;;;;;;-143.84;93.50;43979.09;5090163;28;21170;-74
2021/12/18 01:24:02;;;;;;;9.60;8.00;;;;;;;-143.84;93.22;43971.47;5089859;28;20544;-74
2021/12/18 01:26:29;;;;;;;12.13;8.93;;;;;;;-143.84;93.18;43922.00;5089746;28;20516;-73
2021/12/18 01:28:57;;;;;;;12.00;8.07;;;;;;;-143.84;93.66;43973.38;5089637;28;20804;-73
2021/12/18 01:31:24;;;;;;;14.03;8.07;;;;;;;-143.84;93.17;43933.41;5089246;28;20471;-73
2021/12/18 01:33:52;;;;;;;14.70;8.27;;;;;;;-143.84;93.11;44020.97;5089829;28;20876;-73
2021/12/18 01:36:19;;;;;;;8.03;7.17;;;;;;;-143.84;92.75;43973.38;5089476;28;20439;-73
2021/12/18 01:38:46;;;;;;;12.80;7.93;;;;;;;-143.84;92.71;44017.16;5089462;28;20440;-73
2021/12/18 01:41:15;;;;;;;9.90;7.63;;;;;;;-143.84;92.80;44017.16;5089759;28;20466;-75
2021/12/18 01:44:31;;;;;;;14.43;7.17;;;;;;;-143.84;92.49;44062.84;5089713;28;20437;-75
2021/12/18 01:46:50;;;;;;;12.37;8.07;;;;;;;-143.84;92.32;44074.28;5089265;28;20450;-75
2021/12/18 01:52:15;;;;;;;11.37;7.10;;;;;;;-143.84;92.46;44144.72;5089631;28;20556;-75
2021/12/18 01:54:45;;;;;;;12.40;8.50;;;;;;;-143.84;92.26;44125.69;5083354;28;20949;-75
2021/12/18 01:57:12;;;;;;;12.53;6.87;;;;;;;-143.84;92.29;44064.75;5089883;28;20479;-75
2021/12/18 01:59:42;;;;;;;7.80;6.60;;;;;;;-143.84;92.37;44062.84;5089957;28;20439;-75
2021/12/18 02:02:11;;;;;;;9.07;7.00;;;;;;;-143.84;92.31;44080.00;5089626;28;20459;-75
2021/12/18 02:04:38;;;;;;;9.00;6.60;;;;;;;-143.84;92.78;44043.81;5089590;28;20497;-75
2021/12/18 02:07:07;;;;;;;7.40;6.50;;;;;;;-143.84;92.20;44070.47;5089391;28;20929;-75
2021/12/18 02:09:52;;;;;;;8.90;7.20;;;;;;;-143.84;92.23;44081.88;5089468;28;20448;-75
2021/12/18 02:12:24;;;;;;;9.87;6.83;;;;;;;-143.84;92.74;44070.47;5089570;28;20475;-75
2021/12/18 02:20:37;;;;;;;12.10;7.50;;;;;;;-143.84;92.36;44068.56;5089089;28;20442;-75
2021/12/18 02:23:05;;;;;;;8.80;6.80;;;;;;;-143.84;92.09;44097.13;5089188;28;21095;-75
2021/12/18 02:25:33;;;;;;;8.47;6.20;;;;;;;-143.84;91.93;44140.91;5089195;28;20451;-75
2021/12/18 02:28:01;;;;;;;10.00;7.70;;;;;;;-143.84;91.83;44150.41;5089356;28;20436;-75
2021/12/18 02:30:31;;;;;;;7.03;6.23;;;;;;;-143.84;91.72;44171.38;5089533;28;21215;-75
2021/12/18 02:32:58;;;;;;;9.90;6.20;;;;;;;-143.84;91.61;44184.69;5089317;28;20428;-75
2021/12/18 02:35:29;;;;;;;11.67;6.60;;;;;;;-143.84;91.38;44180.88;5089074;28;20451;-75
2021/12/18 02:38:10;;;;;;;10.73;7.10;;;;;;;-143.84;91.67;44150.41;5088386;28;20934;-75
2021/12/18 02:41:01;;;;;;;8.53;6.80;;;;;;;-143.84;91.32;44220.84;5088294;28;20483;-75
2021/12/18 02:43:31;;;;;;;9.20;6.77;;;;;;;-143.84;91.12;44257.03;5089496;28;20500;-75
2021/12/18 02:45:59;;;;;;;7.83;7.03;;;;;;;-143.84;91.49;44287.50;5088035;28;20468;-75
2021/12/18 02:48:29;;;;;;;11.90;7.57;;;;;;;-143.84;91.32;44226.56;5088942;28;20555;-75
2021/12/18 02:50:58;;;;;;;9.53;8.10;;;;;;;-143.84;91.52;44184.69;5089725;28;20840;-75
2021/12/18 02:53:26;;;;;;;7.40;6.60;;;;;;;-143.84;91.55;44258.94;5089620;28;20505;-75
2021/12/18 02:55:58;;;;;;;9.53;6.90;;;;;;;-143.84;92.15;44180.88;5089510;28;20442;-75
2021/12/18 02:58:26;;;;;;;9.73;6.43;;;;;;;-143.84;91.24;44266.53;5089399;28;20527;-75
2021/12/18 03:00:55;;;;;;;7.63;6.53;;;;;;;-143.84;91.60;44215.16;5090369;28;20972;-75
2021/12/18 03:03:27;;;;;;;9.33;6.67;;;;;;;-143.84;92.18;44142.81;5092833;28;21103;-75
2021/12/18 03:06:08;;;;;;;7.30;5.83;;;;;;;-143.84;91.89;44106.63;5092323;28;20447;-75
2021/12/18 03:08:45;;;;;;;9.70;7.50;;;;;;;-143.84;92.63;44036.22;5092708;28;20948;-75
2021/12/18 03:25:00;;;;;;;7.63;6.20;;;;;;;-143.84;92.26;44091.41;5090831;28;20494;-75
2021/12/18 03:27:28;;;;;;;7.50;6.30;;;;;;;-143.84;92.18;44108.53;5092156;28;20453;-75
2021/12/18 03:29:56;;;;;;;12.60;6.77;;;;;;;-143.84;92.46;44093.31;5092095;28;20441;-75
2021/12/18 03:32:24;;;;;;;10.70;6.30;;;;;;;-143.84;91.97;44060.94;5091918;28;20572;-75
2021/12/18 03:34:52;;;;;;;7.23;6.53;;;;;;;-143.84;92.29;43975.28;5092216;28;20451;-75
2021/12/18 03:37:22;;;;;;;7.80;6.33;;;;;;;-143.84;92.29;44017.16;5092258;28;20447;-75
2021/12/18 03:39:50;;;;;;;12.23;6.90;;;;;;;-143.84;91.92;44095.22;5092398;28;20944;-75
2021/12/18 03:42:17;;;;;;;7.10;6.33;;;;;;;-143.84;92.29;44121.88;5092325;28;21100;-75
2021/12/18 03:44:45;;;;;;;7.77;5.90;;;;;;;-143.84;92.52;44104.72;5092043;28;21009;-75
2021/12/18 03:47:12;;;;;;;7.73;5.83;;;;;;;-143.84;92.42;44064.75;5091939;28;20560;-75
2021/12/18 03:49:40;;;;;;;14.10;6.83;;;;;;;-143.84;92.18;44108.53;5091744;28;20432;-75
2021/12/18 03:52:07;;;;;;;8.83;5.40;;;;;;;-143.84;92.43;44097.13;5091800;28;20480;-75
2021/12/18 03:54:36;;;;;;;10.17;7.00;;;;;;;-143.84;91.58;44180.88;5092097;28;20486;-75
2021/12/18 03:57:04;;;;;;;9.67;7.10;;;;;;;-143.84;91.46;44245.59;5074080;28;20866;-75
2021/12/18 03:59:31;;;;;;;7.17;5.73;;;;;;;-143.84;91.21;44300.81;5091707;28;21197;-75
2021/12/18 04:01:58;;;;;;;9.30;6.70;;;;;;;-143.84;91.89;44270.34;5091656;28;20773;-75
2021/12/18 04:04:26;;;;;;;8.50;5.90;;;;;;;-143.84;91.36;44302.72;5091430;28;20489;-75
2021/12/18 04:06:53;;;;;;;9.90;6.50;;;;;;;-143.84;92.01;44209.44;5091522;28;20439;-75
2021/12/18 04:09:21;;;;;;;9.07;6.43;;;;;;;-143.84;91.55;44211.34;5091544;28;20515;-75
2021/12/18 04:11:49;;;;;;;7.40;6.70;;;;;;;-143.84;91.60;44249.41;5090865;28;20475;-75
2021/12/18 04:14:17;;;;;;;7.20;6.20;;;;;;;-143.84;92.04;44215.16;5092219;28;20436;-75
2021/12/18 04:16:45;;;;;;;8.50;6.73;;;;;;;-143.84;91.89;44236.09;5091312;28;20725;-75
2021/12/18 04:19:12;;;;;;;9.70;5.80;;;;;;;-143.84;91.77;44217.06;5091473;28;20446;-75
2021/12/18 04:21:39;;;;;;;8.97;6.43;;;;;;;-143.84;91.78;44213.25;5091400;28;20484;-75
2021/12/18 04:24:07;;;;;;;7.70;5.63;;;;;;;-143.84;91.92;44211.34;5077916;28;20484;-75
2021/12/18 04:26:36;;;;;;;10.07;5.77;;;;;;;-143.84;91.74;44220.84;5071039;28;20717;-75
2021/12/18 04:29:06;;;;;;;7.80;6.47;;;;;;;-143.84;91.35;44257.03;5071093;28;20938;-75
2021/12/18 04:31:34;;;;;;;10.83;6.63;;;;;;;-143.84;91.19;44255.13;5070694;28;20567;-75
2021/12/18 04:34:02;;;;;;;10.00;6.67;;;;;;;-143.84;91.29;44302.72;5071172;28;20449;-75
2021/12/18 04:36:29;;;;;;;5.97;5.37;;;;;;;-143.84;92.05;44226.56;5071269;28;20444;-75
2021/12/18 04:38:56;;;;;;;7.67;5.60;;;;;;;-143.84;92.17;44211.34;5070790;28;20452;-75
2021/12/18 04:41:35;;;;;;;5.37;4.87;;;;;;;-143.84;92.03;44163.75;5071122;28;20492;-75
2021/12/18 04:44:04;;;;;;;6.37;5.80;;;;;;;-143.84;92.32;44131.38;5070288;28;20450;-75
2021/12/18 04:46:31;;;;;;;7.57;5.60;;;;;;;-143.84;92.37;44095.22;5070258;28;20449;-74
2021/12/18 04:48:58;;;;;;;6.77;5.70;;;;;;;-143.84;92.07;44095.22;5070326;28;20510;-75
2021/12/18 04:51:25;;;;;;;10.00;6.27;;;;;;;-143.84;92.70;44080.00;5070427;28;20450;-75
2021/12/18 04:53:53;;;;;;;8.50;6.17;;;;;;;-143.84;93.24;44030.50;5070374;28;20427;-75
2021/12/18 04:56:20;;;;;;;7.47;6.10;;;;;;;-143.84;92.57;43986.72;5070305;28;20478;-75
2021/12/18 04:58:47;;;;;;;6.47;5.73;;;;;;;-143.84;93.11;43992.41;5070232;28;20432;-75
2021/12/18 05:01:17;;;;;;;5.73;5.23;;;;;;;-143.84;92.78;44007.66;5070260;28;20445;-75
2021/12/18 05:03:44;;;;;;;8.57;6.30;;;;;;;-143.84;93.03;44017.16;5070198;28;20871;-75
2021/12/18 05:06:12;;;;;;;7.73;5.70;;;;;;;-143.84;92.66;44040.00;5070454;28;20817;-75
2021/12/18 05:08:39;;;;;;;4.83;4.43;;;;;;;-143.84;92.69;44074.28;5070336;28;20797;-75
2021/12/18 05:11:06;;;;;;;6.37;5.43;;;;;;;-143.84;93.17;44009.56;5070251;28;20454;-75
2021/12/18 05:13:34;;;;;;;6.50;5.63;;;;;;;-143.84;93.07;44040.00;5070187;28;20994;-75
2021/12/18 05:16:01;;;;;;;8.73;5.67;;;;;;;-143.84;92.83;44034.31;5070137;28;20447;-75
2021/12/18 05:18:30;;;;;;;9.47;5.77;;;;;;;-143.84;92.93;44007.66;5070211;28;21327;-75
2021/12/18 05:20:57;;;;;;;9.13;5.17;;;;;;;-143.84;92.60;44043.81;5070106;28;20441;-75
2021/12/18 05:23:24;;;;;;;8.00;3.70;;;;;;;-143.84;92.68;44000.03;5068866;28;20526;-74
2021/12/18 05:25:52;;;;;;;6.63;5.57;;;;;;;-143.84;93.51;44009.56;5069245;28;20445;-74
2021/12/18 05:28:19;;;;;;;8.70;5.97;;;;;;;-143.84;92.81;43994.31;5069385;28;20449;-74
2021/12/18 05:30:46;;;;;;;6.50;5.40;;;;;;;-143.84;93.00;44024.78;5069668;28;20438;-74
2021/12/18 05:33:13;;;;;;;8.27;5.30;;;;;;;-143.84;92.83;44028.59;5068929;28;20875;-74
2021/12/18 05:35:42;;;;;;;9.77;6.20;;;;;;;-143.84;93.45;43981.00;5069268;28;20447;-74
2021/12/18 05:38:09;;;;;;;8.87;6.10;;;;;;;-143.84;93.86;43941.03;5069352;28;20445;-74
2021/12/18 05:40:38;;;;;;;9.47;6.07;;;;;;;-143.84;93.97;43920.09;5069266;28;20433;-74
2021/12/18 05:43:06;;;;;;;6.67;5.53;;;;;;;-143.84;93.34;43925.78;5069002;28;21083;-72
2021/12/18 05:45:34;;;;;;;10.17;6.30;;;;;;;-143.84;93.27;43965.78;5068737;28;20965;-74
2021/12/18 05:48:01;;;;;;;7.50;5.70;;;;;;;-143.84;93.78;43939.13;5069160;28;20862;-72
2021/12/18 05:50:29;;;;;;;5.40;4.90;;;;;;;-143.84;93.64;43910.56;5069002;28;20498;-72
2021/12/18 05:53:00;;;;;;;7.33;5.30;;;;;;;-143.84;93.31;43948.63;5068549;28;20893;-72
2021/12/18 05:55:27;;;;;;;8.67;5.90;;;;;;;-143.84;94.10;43948.63;5068972;28;20449;-73
2021/12/18 05:57:54;;;;;;;8.90;6.23;;;;;;;-143.84;93.76;43977.19;5068564;28;20434;-72
2021/12/18 06:00:22;;;;;;;8.37;5.30;;;;;;;-143.84;93.92;43950.53;5067847;28;20446;-73
2021/12/18 06:02:49;;;;;;;6.80;5.40;;;;;;;-143.84;93.42;43944.84;5067645;28;20449;-72
2021/12/18 06:05:17;;;;;;;5.63;4.97;;;;;;;-143.84;93.60;43971.47;5067666;28;20907;-73
2021/12/18 06:07:54;;;;;;;7.23;6.10;;;;;;;-143.84;93.81;43960.06;5052770;28;20531;-72
2021/12/18 06:10:24;;;;;;;4.73;4.33;;;;;;;-143.84;93.88;43960.06;5067869;28;20449;-73
2021/12/18 06:12:52;;;;;;;7.83;5.50;;;;;;;-143.84;94.42;43933.41;5067135;28;20484;-72
2021/12/18 06:15:19;;;;;;;8.60;6.27;;;;;;;-143.84;94.74;43929.59;5069907;28;20441;-71
2021/12/18 06:17:46;;;;;;;8.13;5.40;;;;;;;-143.84;94.89;43897.25;5068587;28;21546;-72
2021/12/18 06:20:14;;;;;;;8.17;4.80;;;;;;;-143.84;94.36;43923.91;5067459;28;20441;-72
2021/12/18 06:22:41;;;;;;;7.70;5.23;;;;;;;-143.84;94.37;43910.56;5068474;28;20487;-71
2021/12/18 06:25:09;;;;;;;7.10;6.13;;;;;;;-143.84;94.53;43937.22;5096491;28;20464;-73
2021/12/18 06:27:38;;;;;;;7.73;6.17;;;;;;;-143.84;93.76;43948.63;5091949;28;20453;-73
2021/12/18 06:30:07;;;;;;;7.07;4.70;;;;;;;-143.84;94.29;43906.75;5093930;28;20441;-73
2021/12/18 06:32:34;;;;;;;7.93;6.00;;;;;;;-143.84;93.87;43944.84;5080312;28;20517;-73
2021/12/18 06:35:01;;;;;;;5.93;4.40;;;;;;;-143.84;93.85;43981.00;5082442;28;20466;-74
2021/12/18 06:37:29;;;;;;;6.57;5.07;;;;;;;-143.84;93.90;43906.75;5078230;28;20455;-74
2021/12/18 06:39:56;;;;;;;8.10;5.40;;;;;;;-143.84;93.85;43956.25;5083159;28;20460;-74
2021/12/18 06:42:24;;;;;;;19.90;5.57;;;;;;;-143.84;93.88;43942.94;5091125;28;20463;-75
2021/12/18 06:44:53;;;;;;;6.50;5.97;;;;;;;-143.84;93.76;43918.19;5086331;28;20465;-74
2021/12/18 06:47:20;;;;;;;7.00;5.00;;;;;;;-143.84;93.25;43956.25;5082637;28;20507;-76
2021/12/18 06:49:47;;;;;;;7.80;5.10;;;;;;;-143.84;93.48;43994.31;5075827;28;20437;-77
2021/12/18 06:52:14;;;;;;;5.10;4.70;;;;;;;-143.84;92.34;44045.72;5090042;28;20484;-75
2021/12/18 06:54:41;;;;;;;7.20;4.93;;;;;;;-143.84;92.06;44066.66;5090967;28;20500;-75
2021/12/18 06:57:09;;;;;;;5.93;4.70;;;;;;;-143.84;92.03;44139.00;5091292;28;20438;-74
2021/12/18 06:59:36;;;;;;;4.90;4.53;;;;;;;-143.84;91.97;44285.59;5096515;28;20443;-74
2021/12/18 07:02:05;;;;;;;5.70;4.80;;;;;;;-143.84;91.41;44289.41;5093151;28;20436;-75
2021/12/18 07:04:32;;;;;;;4.77;4.37;;;;;;;-143.84;91.35;44260.84;5097026;28;20434;-73
2021/12/18 07:06:59;;;;;;;5.37;4.87;;;;;;;-143.84;91.49;44239.91;5093156;28;20432;-74
2021/12/18 07:09:26;;;;;;;5.30;4.80;;;;;;;-143.84;92.11;44245.59;5093330;28;20445;-75
2021/12/18 07:11:54;;;;;;;5.73;5.20;;;;;;;-143.84;91.04;44306.53;5091884;28;20430;-74
2021/12/18 07:14:21;;;;;;;4.63;4.27;;;;;;;-143.84;91.04;44527.38;5092684;28;20490;-74
2021/12/18 07:16:48;;;;;;;10.10;5.13;;;;;;;-143.84;90.35;44582.59;5093248;28;20439;-74
2021/12/18 07:19:17;;;;;;;6.83;4.93;;;;;;;-143.84;89.85;44769.16;5092755;28;20431;-74
2021/12/18 07:21:44;;;;;;;6.03;4.40;;;;;;;-143.84;89.18;44870.09;5092587;28;20447;-74
2021/12/18 07:24:11;;;;;;;4.37;3.97;;;;;;;-143.84;88.68;44915.78;5091745;28;20523;-74
2021/12/18 07:26:38;;;;;;;5.73;4.80;;;;;;;-143.84;88.33;44959.56;5091529;28;20504;-74
2021/12/18 07:29:05;;;;;;;4.47;4.17;;;;;;;-143.84;88.21;44934.81;5090793;28;20439;-73
2021/12/18 07:31:32;;;;;;;6.07;4.87;;;;;;;-143.84;88.21;44929.09;5090882;28;20428;-73
2021/12/18 07:34:00;;;;;;;5.50;4.83;;;;;;;-143.84;87.87;44929.09;5090730;28;20496;-74
2021/12/18 07:36:29;;;;;;;6.00;5.10;;;;;;;-143.84;86.25;45052.88;5090242;28;20460;-74
2021/12/18 07:38:56;;;;;;;7.27;4.70;;;;;;;-143.84;83.67;45163.31;5090335;28;20994;-73
2021/12/18 07:41:23;;;;;;;6.70;5.67;;;;;;;-143.84;83.26;45132.84;5089607;28;20870;-73
2021/12/18 07:43:50;;;;;;;8.73;4.20;;;;;;;-143.84;82.40;45201.41;5091153;28;20452;-73
2021/12/18 07:46:18;;;;;;;4.77;4.37;;;;;;;-143.84;81.58;45189.97;5090741;28;20436;-73
2021/12/18 07:48:45;;;;;;;4.73;4.30;;;;;;;-143.84;80.28;45199.50;5091477;28;20439;-73
2021/12/18 07:51:13;;;;;;;5.97;4.30;;;;;;;-143.84;80.47;45201.41;5091589;28;20470;-74
2021/12/18 07:53:41;;;;;;;3.80;3.50;;;;;;;-143.84;79.22;45209.03;5091818;28;20881;-74
2021/12/18 07:56:09;;;;;;;4.90;4.30;;;;;;;-143.84;78.26;45191.88;5091312;28;21002;-73
2021/12/18 07:58:37;;;;;;;7.47;4.53;;;;;;;-143.84;76.46;45201.41;5091620;28;20436;-72
2021/12/18 08:01:04;;;;;;;7.17;4.00;;;;;;;-143.84;75.53;45210.94;5091166;28;20974;-74
2021/12/18 08:03:31;;;;;;;12.63;3.97;;;;;;;-143.84;75.02;45237.59;5091405;28;20869;-75
2021/12/18 08:05:59;;;;;;;7.03;4.07;;;;;;;-143.84;73.94;45216.63;5091316;28;20501;-74
2021/12/18 08:08:26;;;;;;;4.67;4.27;;;;;;;-143.84;73.60;45197.59;5091300;28;20433;-74
2021/12/18 08:10:54;;;;;;;4.70;4.27;;;;;;;-143.84;73.30;45203.31;5090657;28;20440;-74
2021/12/18 08:13:22;;;;;;;8.10;4.17;;;;;;;-143.84;72.42;45220.44;5091347;28;20478;-74
2021/12/18 08:15:49;;;;;;;3.93;3.40;;;;;;;-143.84;71.27;45218.53;5091160;28;20441;-74
2021/12/18 08:18:16;;;;;;;4.03;3.70;;;;;;;-143.84;70.26;45201.41;5090970;28;20436;-72
2021/12/18 08:20:44;;;;;;;4.10;3.57;;;;;;;-143.84;69.76;45226.16;5090587;28;20470;-72
2021/12/18 08:23:11;;;;;;;3.87;3.57;;;;;;;-143.84;69.83;45231.88;5090491;28;20482;-72
2021/12/18 08:25:39;;;;;;;4.60;3.90;;;;;;;-143.84;68.69;45207.13;5090055;28;20496;-71
2021/12/18 08:28:08;;;;;;;4.03;3.70;;;;;;;-143.84;69.21;45228.06;5090569;28;20445;-72
2021/12/18 08:30:39;;;;;;;3.20;3.00;;;;;;;-143.84;68.29;45212.84;5090656;28;20433;-72
2021/12/18 08:33:07;;;;;;;6.87;4.23;;;;;;;-143.84;67.83;45205.22;5090331;28;20476;-72
2021/12/18 08:35:35;;;;;;;4.20;3.80;;;;;;;-143.84;68.03;45216.63;5090328;28;20446;-71
2021/12/18 08:38:04;;;;;;;4.00;3.70;;;;;;;-143.84;67.58;45205.22;5087173;28;20458;-71
2021/12/18 08:40:33;;;;;;;5.37;4.00;;;;;;;-143.84;68.91;45209.03;5089863;28;20451;-71
2021/12/18 08:43:00;;;;;;;4.57;3.93;;;;;;;-143.84;69.75;45195.69;5094133;28;20437;-72
2021/12/18 08:45:29;;;;;;;6.60;4.17;;;;;;;-143.84;69.81;45226.16;5090408;28;20444;-74
2021/12/18 08:47:56;;;;;;;4.63;3.97;;;;;;;-143.84;70.48;45188.06;5090490;28;20437;-74
2021/12/18 08:50:25;;;;;;;3.90;3.60;;;;;;;-143.84;70.01;45218.53;5087362;28;20889;-75
2021/12/18 08:52:52;;;;;;;3.77;3.47;;;;;;;-143.84;69.10;45207.13;5081984;28;20484;-74
2021/12/18 08:55:22;;;;;;;3.80;3.47;;;;;;;-143.84;68.49;45228.06;5090082;28;20452;-74
2021/12/18 08:57:50;;;;;;;4.23;3.30;;;;;;;-143.84;67.78;45205.22;5090260;28;21015;-74
2021/12/18 09:00:21;;;;;;;5.30;3.40;;;;;;;-143.84;66.34;45201.41;5090466;28;20461;-72
2021/12/18 09:02:52;;;;;;;4.30;3.90;;;;;;;-143.84;65.92;45209.03;5090977;28;20445;-74
2021/12/18 09:05:19;;;;;;;4.07;3.57;;;;;;;-143.84;65.65;45191.88;5090737;28;20457;-75
2021/12/18 09:07:46;;;;;;;5.87;3.30;;;;;;;-143.84;65.58;45199.50;5090739;28;21074;-75
2021/12/18 09:10:15;;;;;;;3.17;2.97;;;;;;;-143.84;65.57;45216.63;5090310;28;20494;-75
2021/12/18 09:12:44;;;;;;;5.50;3.13;;;;;;;-143.84;64.81;45205.22;5090223;28;20909;-75
2021/12/18 09:15:12;;;;;;;4.07;3.67;;;;;;;-143.84;66.05;45209.03;5090031;28;20502;-74
2021/12/18 09:17:40;;;;;;;4.57;3.07;;;;;;;-143.84;66.93;45209.03;5090231;28;21286;-73
2021/12/18 09:20:10;;;;;;;3.50;3.30;;;;;;;-143.84;67.00;45216.63;5090402;28;20426;-74
2021/12/18 09:22:37;;;;;;;6.50;3.53;;;;;;;-143.84;67.69;45224.25;5089673;28;20873;-74
2021/12/18 09:25:07;;;;;;;3.33;3.03;;;;;;;-143.84;67.05;45193.78;5088909;28;20447;-74
2021/12/18 09:27:35;;;;;;;4.70;3.60;;;;;;;-143.84;65.57;45170.94;5070155;28;20449;-74
2021/12/18 09:30:02;;;;;;;6.10;3.37;;;;;;;-143.84;63.74;45197.59;5069866;28;20476;-74
2021/12/18 09:32:30;;;;;;;3.50;3.20;;;;;;;-143.84;64.77;45193.78;5069107;28;21434;-73
2021/12/18 09:34:57;;;;;;;3.20;3.00;;;;;;;-143.84;64.03;45193.78;5069351;28;21023;-75
2021/12/18 09:37:26;;;;;;;4.40;4.03;;;;;;;-143.84;64.81;45210.94;5069486;28;20431;-74
2021/12/18 09:39:54;;;;;;;5.40;5.00;;;;;;;-143.84;65.51;45188.06;5069359;28;21360;-74
2021/12/18 09:42:22;;;;;;;8.77;6.27;;;;;;;-143.84;64.74;45193.78;5069232;28;20430;-74
2021/12/18 09:44:51;;;;;;;4.43;4.13;;;;;;;-143.84;65.42;45189.97;5069403;28;20816;-76
2021/12/18 09:47:20;;;;;;;4.00;3.70;;;;;;;-143.84;65.14;45224.25;5069087;28;20440;-75
2021/12/18 09:49:49;;;;;;;3.77;3.40;;;;;;;-143.84;65.74;45207.13;5069560;28;20433;-75
2021/12/18 09:52:16;;;;;;;5.00;3.30;;;;;;;-143.84;65.47;45195.69;5068987;28;20493;-73
2021/12/18 09:54:45;;;;;;;3.03;2.83;;;;;;;-143.84;65.42;45212.84;5068632;28;20495;-72
2021/12/18 09:57:13;;;;;;;5.70;3.07;;;;;;;-143.84;64.84;45218.53;5069077;28;20537;-75
2021/12/18 09:59:40;;;;;;;2.77;2.57;;;;;;;-143.84;64.70;45203.31;5069279;28;20499;-75
2021/12/18 10:02:08;;;;;;;3.00;2.80;;;;;;;-143.84;64.68;45205.22;5069527;28;20436;-74
2021/12/18 10:04:38;;;;;;;3.00;2.53;;;;;;;-143.84;64.61;45189.97;5068908;28;20900;-74
2021/12/18 10:07:17;;;;;;;7.37;3.30;;;;;;;-143.84;63.50;45201.41;5068972;28;20437;-74
2021/12/18 10:09:47;;;;;;;3.27;2.97;;;;;;;-143.84;63.21;45197.59;5068075;28;20452;-74
2021/12/18 10:12:19;;;;;;;5.43;3.90;;;;;;;-143.84;63.97;45220.44;5068625;28;20452;-74
2021/12/18 10:14:49;;;;;;;4.03;3.10;;;;;;;-143.84;63.23;45188.06;5071593;28;20477;-74
2021/12/18 10:17:24;;;;;;;3.30;2.80;;;;;;;-143.84;61.69;45207.13;5084854;28;20508;-74
2021/12/18 10:19:53;;;;;;;2.53;2.30;;;;;;;-143.84;60.44;45199.50;5088811;28;20434;-74
2021/12/18 10:22:21;;;;;;;2.70;2.50;;;;;;;-143.84;58.81;45172.84;5088756;28;20437;-73
2021/12/18 10:25:05;;;;;;;3.87;2.77;;;;;;;-143.84;60.52;45212.84;5087751;28;21005;-74
2021/12/18 10:27:33;;;;;;;3.73;3.00;;;;;;;-143.84;61.32;45209.03;5071066;28;20453;-74
2021/12/18 10:30:13;;;;;;;5.53;2.97;;;;;;;-143.84;60.32;45218.53;5075005;28;20445;-73
2021/12/18 10:32:40;;;;;;;3.10;2.83;;;;;;;-143.84;61.92;45224.25;5080719;28;20450;-73
2021/12/18 10:35:08;;;;;;;5.10;2.63;;;;;;;-143.84;62.36;45222.34;5078419;28;20494;-72
2021/12/18 10:37:36;;;;;;;3.50;2.87;;;;;;;-143.84;63.89;45205.22;5080210;28;20517;-73
2021/12/18 10:40:09;;;;;;;2.90;2.70;;;;;;;-143.84;64.59;45205.22;5079966;28;20460;-72
2021/12/18 10:42:39;;;;;;;3.17;2.47;;;;;;;-143.84;65.80;45216.63;5082836;28;20451;-72
2021/12/18 10:45:13;;;;;;;2.93;2.73;;;;;;;-143.84;67.26;45218.53;5080732;28;20512;-72
2021/12/18 10:47:57;;;;;;;3.80;3.13;;;;;;;-143.84;67.04;45233.78;5084985;28;20448;-72
2021/12/18 10:50:38;;;;;;;2.80;2.60;;;;;;;-143.84;68.69;45193.78;5089298;28;20826;-73
2021/12/18 10:53:10;;;;;;;3.70;3.40;;;;;;;-143.84;69.29;45207.13;5081284;28;20444;-73
2021/12/18 10:55:46;;;;;;;3.60;3.40;;;;;;;-143.84;69.97;45231.88;5081796;28;20458;-72
2021/12/18 10:58:17;;;;;;;3.30;3.00;;;;;;;-143.84;71.28;45205.22;5076720;28;20451;-73
2021/12/18 11:00:57;;;;;;;3.40;3.13;;;;;;;-143.84;70.48;45189.97;5074219;28;20458;-72
2021/12/18 11:03:33;;;;;;;8.13;3.40;;;;;;;-143.84;70.48;45245.19;5079849;28;20555;-73
2021/12/18 11:06:13;;;;;;;4.40;3.93;;;;;;;-143.84;70.23;45220.44;5089014;28;20504;-72
2021/12/18 11:08:59;;;;;;;4.40;3.70;;;;;;;-143.84;70.43;45172.84;5085264;28;20919;-73
2021/12/18 11:14:26;;;;;;;3.10;2.90;;;;;;;-143.84;71.01;45233.78;5024832;28;21737;-72
2021/12/18 11:16:55;;;;;;;3.50;3.20;;;;;;;-143.84;71.43;45214.72;5071132;28;20447;-73
2021/12/18 11:19:24;;;;;;;3.27;3.07;;;;;;;-143.84;71.05;45210.94;5085689;28;21030;-72
2021/12/18 11:21:54;;;;;;;4.00;3.70;;;;;;;-143.84;70.71;45205.22;5070231;28;20454;-72
2021/12/18 11:24:23;;;;;;;3.90;3.40;;;;;;;-143.84;71.31;45220.44;5081969;28;20492;-72
2021/12/18 11:26:58;;;;;;;4.03;3.73;;;;;;;-143.84;72.13;45207.13;5085068;28;20448;-73
2021/12/18 11:29:32;;;;;;;4.17;3.77;;;;;;;-143.84;73.16;45228.06;5087748;28;20451;-72
2021/12/18 11:32:00;;;;;;;6.83;4.37;;;;;;;-143.84;73.08;45209.03;5091920;28;20543;-72
2021/12/18 11:34:28;;;;;;;3.60;3.40;;;;;;;-143.84;72.63;45214.72;5090170;28;20526;-72
2021/12/18 11:36:55;;;;;;;4.50;3.67;;;;;;;-143.84;73.53;45210.94;5085181;28;20448;-73
2021/12/18 11:39:25;;;;;;;6.57;3.63;;;;;;;-143.84;72.31;45237.59;5080276;28;20448;-73
2021/12/18 11:41:54;;;;;;;4.53;4.13;;;;;;;-143.84;72.59;45237.59;5091530;28;20855;-72
2021/12/18 11:44:31;;;;;;;5.10;4.17;;;;;;;-143.84;72.77;45216.63;5091311;28;20457;-72
2021/12/18 11:46:59;;;;;;;4.30;3.90;;;;;;;-143.84;73.27;45241.41;5091324;28;20452;-72
2021/12/18 11:49:43;;;;;;;3.90;3.60;;;;;;;-143.84;73.45;45224.25;5091907;28;20481;-72
2021/12/18 11:52:10;;;;;;;4.40;3.47;;;;;;;-143.84;73.27;45224.25;5087760;28;20450;-72
2021/12/18 11:54:44;;;;;;;4.20;3.73;;;;;;;-143.84;73.75;45201.41;5085853;28;20502;-72